Time;durP1;ratioP1;P1;durP2;ratioP2;P2;SDS_P1;SDS_P2;PMS_P1;PMS_P2;Temp;Humidity;BMP_temperature;BMP_pressure;BME280_temperature;BME280_humidity;BME280_pressure;Samples;Min_cycle;Max_cycle;Signal;HPM_P1;HPM_P2
2023/01/11 06:55:32;;;;;;;1.90;0.45;;;;;;;;;;10554575;27;20494;-84
2023/01/11 07:00:33;;;;;;;0.63;0.45;;;;;;;;;;10548902;28;20531;-85
2023/01/11 07:05:35;;;;;;;1.90;0.75;;;;;;;;;;10548407;28;20024;-84
2023/01/11 07:10:36;;;;;;;1.75;1.20;;;;;;;;;;10548273;28;20078;-84
2023/01/11 07:15:37;;;;;;;1.70;1.08;;;;;;;;;;10558868;28;20028;-83
2023/01/11 07:20:38;;;;;;;;;;;;;;;;;;10558344;28;20025;-84
2023/01/11 07:25:40;;;;;;;1.58;0.93;;;;;;;;;;10565789;28;19918;-84
2023/01/11 07:30:41;;;;;;;2.78;1.45;;;;;;;;;;10548580;28;20025;-84
2023/01/11 07:35:42;;;;;;;1.40;1.13;;;;;;;;;;10550661;28;20028;-84
2023/01/11 07:40:43;;;;;;;1.45;1.20;;;;;;;;;;10569481;27;20025;-85
2023/01/11 07:45:46;;;;;;;2.10;1.13;;;;;;;;;;10552918;28;20051;-83
2023/01/11 07:50:48;;;;;;;4.13;1.77;;;;;;;;;;10551752;28;20024;-83
2023/01/11 07:55:49;;;;;;;2.05;1.40;;;;;;;;;;10548453;28;20029;-83
2023/01/11 08:00:50;;;;;;;1.20;0.80;;;;;;;;;;10544489;28;20029;-79
2023/01/11 08:05:51;;;;;;;;;;;;;;;;;;10519238;28;20031;-79
2023/01/11 08:16:11;;;;;;;1.80;0.95;;;;;;;;;;10521788;28;20032;-81
2023/01/11 08:21:12;;;;;;;;;;;;;;;;;;10518378;28;20032;-81
2023/01/11 08:26:16;;;;;;;3.97;2.03;;;;;;;;;;10555830;28;19944;-80
2023/01/11 08:31:17;;;;;;;4.45;2.22;;;;;;;;;;10522969;28;20021;-81
2023/01/11 08:36:18;;;;;;;3.75;2.58;;;;;;;;;;10514479;28;20116;-82
2023/01/11 08:41:19;;;;;;;;;;;;;;;;;;10513553;28;20509;-82
2023/01/11 08:46:21;;;;;;;4.40;3.10;;;;;;;;;;10532557;28;19912;-82
2023/01/11 08:51:22;;;;;;;4.95;3.03;;;;;;;;;;10509877;28;20051;-81
2023/01/11 08:56:22;;;;;;;;;;;;;;;;;;10513852;28;20020;-81
2023/01/11 09:01:23;;;;;;;9.60;6.13;;;;;;;;;;10512698;28;19904;-80
2023/01/11 09:06:24;;;;;;;;;;;;;;;;;;10511704;28;20028;-81
2023/01/11 09:16:45;;;;;;;12.40;6.63;;;;;;;;;;10510295;28;20024;-81
2023/01/11 09:21:46;;;;;;;;;;;;;;;;;;10514759;28;20039;-81
2023/01/11 09:26:47;;;;;;;11.10;5.68;;;;;;;;;;10530050;28;19904;-82
2023/01/11 09:31:48;;;;;;;9.88;5.85;;;;;;;;;;10511430;28;20027;-80
2023/01/11 09:36:49;;;;;;;;;;;;;;;;;;10512989;28;20025;-81
2023/01/11 09:41:50;;;;;;;9.52;4.55;;;;;;;;;;10527613;28;19904;-80
2023/01/11 09:46:53;;;;;;;;;;;;;;;;;;10508321;28;20110;-78
2023/01/11 09:52:04;;;;;;;8.73;3.55;;;;;;;;;;10527310;28;19922;-80
2023/01/11 09:57:36;;;;;;;9.02;3.25;;;;;;;;;;10509101;28;20025;-81
2023/01/11 10:02:47;;;;;;;11.15;5.47;;;;;;;;;;10459027;28;20474;-81
2023/01/11 10:07:56;;;;;;;10.77;3.25;;;;;;;;;;10510587;28;20031;-81
2023/01/11 10:12:59;;;;;;;10.30;3.03;;;;;;;;;;10511101;28;20028;-81
2023/01/11 10:18:01;;;;;;;8.82;2.42;;;;;;;;;;10521393;28;20024;-79
2023/01/11 10:23:05;;;;;;;10.32;3.78;;;;;;;;;;10526216;28;20036;-79
2023/01/11 10:28:30;;;;;;;6.15;3.17;;;;;;;;;;10528909;28;20028;-80
2023/01/11 10:33:51;;;;;;;5.97;2.90;;;;;;;;;;10513773;28;20113;-80
2023/01/11 10:44:03;;;;;;;7.10;2.67;;;;;;;;;;10516973;28;20040;-80
2023/01/11 10:49:17;;;;;;;6.40;2.65;;;;;;;;;;10517953;28;20031;-79
2023/01/11 10:54:21;;;;;;;6.53;2.58;;;;;;;;;;10532715;28;20079;-79
2023/01/11 10:59:36;;;;;;;11.95;3.15;;;;;;;;;;10532613;28;20035;-79
2023/01/11 11:04:43;;;;;;;5.07;2.05;;;;;;;;;;10532772;28;20041;-79
2023/01/11 11:09:48;;;;;;;8.43;2.70;;;;;;;;;;10536681;28;20031;-80
2023/01/11 11:14:52;;;;;;;10.35;3.00;;;;;;;;;;10544322;28;20037;-80
2023/01/11 11:19:53;;;;;;;11.30;3.53;;;;;;;;;;10543625;28;20071;-79
2023/01/11 11:24:54;;;;;;;;;;;;;;;;;;10532231;28;20029;-78
2023/01/11 11:29:56;;;;;;;5.35;2.60;;;;;;;;;;10528401;28;19905;-79
2023/01/11 11:34:57;;;;;;;9.68;3.65;;;;;;;;;;10525820;28;20052;-78
2023/01/11 11:39:58;;;;;;;;;;;;;;;;;;10529489;28;20070;-79
2023/01/11 11:45:08;;;;;;;8.70;4.82;;;;;;;;;;10545302;28;20388;-80
2023/01/11 11:50:18;;;;;;;7.07;2.80;;;;;;;;;;10519867;28;20056;-79
2023/01/11 11:55:27;;;;;;;10.23;3.90;;;;;;;;;;10523023;28;20056;-79
2023/01/11 12:00:32;;;;;;;7.95;2.65;;;;;;;;;;10535636;28;20021;-78
2023/01/11 12:05:33;;;;;;;7.38;2.30;;;;;;;;;;10536201;28;20120;-78
2023/01/11 12:10:34;;;;;;;;;;;;;;;;;;10546610;28;20012;-80
2023/01/11 12:15:35;;;;;;;9.93;4.00;;;;;;;;;;10541640;28;19948;-78
2023/01/11 12:20:40;;;;;;;7.65;2.35;;;;;;;;;;10541767;28;20067;-78
2023/01/11 12:25:47;;;;;;;7.25;2.10;;;;;;;;;;10536539;28;20016;-80
2023/01/11 12:31:10;;;;;;;6.97;2.80;;;;;;;;;;10521879;28;20020;-81
2023/01/11 12:36:22;;;;;;;6.85;3.25;;;;;;;;;;10521040;28;20043;-82
2023/01/11 12:41:46;;;;;;;6.05;2.53;;;;;;;;;;10523010;28;20077;-82
2023/01/11 12:46:47;;;;;;;10.55;3.22;;;;;;;;;;10523919;28;20052;-82
2023/01/11 12:51:49;;;;;;;;;;;;;;;;;;10518951;28;20098;-82
2023/01/11 12:57:02;;;;;;;6.45;2.50;;;;;;;;;;10538999;28;19905;-82
2023/01/11 13:02:06;;;;;;;6.95;2.75;;;;;;;;;;10516301;28;20029;-81
2023/01/11 13:07:19;;;;;;;8.27;2.88;;;;;;;;;;10513928;28;20119;-82
2023/01/11 13:12:29;;;;;;;8.38;2.88;;;;;;;;;;10507727;28;20035;-80
2023/01/11 13:17:42;;;;;;;7.18;2.63;;;;;;;;;;10507613;28;20121;-80
2023/01/11 13:22:46;;;;;;;5.50;2.40;;;;;;;;;;10508182;28;20051;-79
2023/01/11 13:27:48;;;;;;;5.97;2.53;;;;;;;;;;10509992;28;20028;-80
2023/01/11 13:32:56;;;;;;;5.97;2.38;;;;;;;;;;10520555;28;20041;-80
2023/01/11 13:38:01;;;;;;;6.68;2.63;;;;;;;;;;10518656;28;20024;-79
2023/01/11 13:43:09;;;;;;;5.85;2.90;;;;;;;;;;10523372;28;20025;-79
2023/01/11 13:48:17;;;;;;;5.68;2.20;;;;;;;;;;10518738;28;20040;-80
2023/01/11 13:53:31;;;;;;;7.72;2.70;;;;;;;;;;10515193;28;20155;-79
2023/01/11 13:58:32;;;;;;;6.75;2.20;;;;;;;;;;10516323;28;20025;-80
2023/01/11 14:03:33;;;;;;;;;;;;;;;;;;10518888;28;20153;-80
2023/01/11 14:08:48;;;;;;;8.75;2.88;;;;;;;;;;10517635;28;20351;-81
2023/01/11 14:14:12;;;;;;;8.10;3.22;;;;;;;;;;10517689;28;20035;-80
2023/01/11 14:19:20;;;;;;;5.88;1.95;;;;;;;;;;10518710;28;20020;-80
2023/01/11 14:24:22;;;;;;;7.10;2.38;;;;;;;;;;10514759;28;20067;-80
2023/01/11 14:29:24;;;;;;;10.57;2.45;;;;;;;;;;10511496;28;20030;-80
2023/01/11 14:34:25;;;;;;;8.23;2.92;;;;;;;;;;10512233;28;20119;-81
2023/01/11 14:39:27;;;;;;;;;;;;;;;;;;10507949;28;20017;-85
2023/01/11 14:44:45;;;;;;;4.47;2.20;;;;;;;;;;10538496;28;19905;-81
2023/01/11 14:49:52;;;;;;;6.85;2.10;;;;;;;;;;10524613;28;20039;-82
2023/01/11 14:54:54;;;;;;;5.15;2.13;;;;;;;;;;10505876;28;20144;-82
2023/01/11 14:59:55;;;;;;;7.78;2.20;;;;;;;;;;10513811;28;20119;-80
2023/01/11 15:04:56;;;;;;;;;;;;;;;;;;10516562;28;20036;-80
2023/01/11 15:09:58;;;;;;;5.47;2.33;;;;;;;;;;10525225;28;19931;-81
2023/01/11 15:15:02;;;;;;;8.07;2.20;;;;;;;;;;10515339;28;20043;-82
2023/01/11 15:20:09;;;;;;;8.80;2.72;;;;;;;;;;10517938;28;20120;-83
2023/01/11 15:25:19;;;;;;;5.70;2.22;;;;;;;;;;10514201;28;20031;-80
2023/01/11 15:30:29;;;;;;;7.30;2.20;;;;;;;;;;10519866;28;20176;-82
2023/01/11 15:35:32;;;;;;;5.57;2.10;;;;;;;;;;10513169;28;20115;-80
2023/01/11 15:40:36;;;;;;;8.07;3.78;;;;;;;;;;10521437;28;20035;-83
2023/01/11 15:51:02;;;;;;;7.88;2.75;;;;;;;;;;10515976;28;20048;-82
2023/01/11 15:56:03;;;;;;;;;;;;;;;;;;10516559;28;20020;-81
2023/01/11 16:01:18;;;;;;;8.38;2.80;;;;;;;;;;10550805;28;19944;-80
2023/01/11 16:06:20;;;;;;;7.28;2.28;;;;;;;;;;10534903;28;20048;-83
2023/01/11 16:11:39;;;;;;;5.97;2.20;;;;;;;;;;10516907;28;20024;-82
2023/01/11 16:16:42;;;;;;;6.93;2.63;;;;;;;;;;10516469;28;20066;-83
2023/01/11 16:21:44;;;;;;;6.85;2.35;;;;;;;;;;10515692;28;20021;-82
2023/01/11 16:26:49;;;;;;;7.60;2.78;;;;;;;;;;10515115;28;20025;-83
2023/01/11 16:31:58;;;;;;;7.82;2.50;;;;;;;;;;10514537;28;20036;-82
2023/01/11 16:37:00;;;;;;;8.45;2.70;;;;;;;;;;10515853;28;20050;-82
2023/01/11 16:42:02;;;;;;;;;;;;;;;;;;10514346;28;20024;-82
2023/01/11 16:47:13;;;;;;;6.18;2.08;;;;;;;;;;10532460;28;19905;-82
2023/01/11 16:52:27;;;;;;;10.75;2.72;;;;;;;;;;10512849;28;20040;-82
2023/01/11 16:57:30;;;;;;;9.15;2.60;;;;;;;;;;10513202;28;20017;-81
2023/01/11 17:02:37;;;;;;;5.40;1.92;;;;;;;;;;10513418;28;20024;-83
2023/01/11 17:07:38;;;;;;;9.50;2.28;;;;;;;;;;10516113;28;20024;-82
2023/01/11 17:12:39;;;;;;;;;;;;;;;;;;10523237;28;20037;-80
2023/01/11 17:17:40;;;;;;;6.47;2.13;;;;;;;;;;10533563;28;19889;-86
